sensor_id;sensor_type;location;lat;lon;timestamp;P1;durP1;ratioP1;P2;durP2;ratioP2
29006;SDS011;16104;48.642;9.008;2022-07-01T00:00:29;2.78;;;0.80;;
29006;SDS011;16104;48.642;9.008;2022-07-01T01:01:24;1.05;;;0.38;;
29006;SDS011;16104;48.642;9.008;2022-07-01T01:06:19;1.48;;;0.75;;
29006;SDS011;16104;48.642;9.008;2022-07-01T01:11:15;0.80;;;0.40;;
29006;SDS011;16104;48.642;9.008;2022-07-01T02:02:00;1.73;;;0.57;;
29006;SDS011;16104;48.642;9.008;2022-07-01T02:06:56;1.52;;;0.45;;
29006;SDS011;16104;48.642;9.008;2022-07-01T02:11:51;1.92;;;0.43;;
29006;SDS011;16104;48.642;9.008;2022-07-01T03:02:37;0.70;;;0.70;;
29006;SDS011;16104;48.642;9.008;2022-07-01T03:07:32;2.88;;;1.17;;
29006;SDS011;16104;48.642;9.008;2022-07-01T03:12:30;2.28;;;1.15;;
29006;SDS011;16104;48.642;9.008;2022-07-01T03:17:30;2.13;;;0.90;;
29006;SDS011;16104;48.642;9.008;2022-07-01T03:22:28;0.80;;;0.80;;
29006;SDS011;16104;48.642;9.008;2022-07-01T03:27:26;0.88;;;0.88;;
29006;SDS011;16104;48.642;9.008;2022-07-01T03:32:21;1.10;;;1.00;;
29006;SDS011;16104;48.642;9.008;2022-07-01T03:37:17;1.08;;;0.90;;
29006;SDS011;16104;48.642;9.008;2022-07-01T03:42:14;1.10;;;1.00;;
29006;SDS011;16104;48.642;9.008;2022-07-01T03:47:09;2.53;;;1.10;;
29006;SDS011;16104;48.642;9.008;2022-07-01T03:52:05;2.60;;;1.00;;
29006;SDS011;16104;48.642;9.008;2022-07-01T03:57:02;1.20;;;0.82;;
29006;SDS011;16104;48.642;9.008;2022-07-01T04:02:03;1.63;;;1.10;;
29006;SDS011;16104;48.642;9.008;2022-07-01T04:07:00;1.45;;;1.00;;
29006;SDS011;16104;48.642;9.008;2022-07-01T04:11:59;2.03;;;0.70;;
29006;SDS011;16104;48.642;9.008;2022-07-01T04:16:55;1.27;;;0.88;;
29006;SDS011;16104;48.642;9.008;2022-07-01T04:21:50;3.05;;;1.00;;
29006;SDS011;16104;48.642;9.008;2022-07-01T04:27:05;1.15;;;0.88;;
29006;SDS011;16104;48.642;9.008;2022-07-01T04:32:00;0.77;;;0.70;;
29006;SDS011;16104;48.642;9.008;2022-07-01T04:36:56;3.10;;;0.80;;
29006;SDS011;16104;48.642;9.008;2022-07-01T04:41:51;3.03;;;0.90;;
29006;SDS011;16104;48.642;9.008;2022-07-01T04:46:56;1.35;;;0.63;;
29006;SDS011;16104;48.642;9.008;2022-07-01T04:51:52;0.85;;;0.60;;
29006;SDS011;16104;48.642;9.008;2022-07-01T04:56:48;0.70;;;0.60;;
29006;SDS011;16104;48.642;9.008;2022-07-01T05:01:44;1.20;;;0.55;;
29006;SDS011;16104;48.642;9.008;2022-07-01T05:06:40;1.80;;;0.40;;
29006;SDS011;16104;48.642;9.008;2022-07-01T05:11:36;0.50;;;0.50;;
29006;SDS011;16104;48.642;9.008;2022-07-01T05:16:34;0.57;;;0.35;;
29006;SDS011;16104;48.642;9.008;2022-07-01T05:21:29;1.13;;;0.57;;
29006;SDS011;16104;48.642;9.008;2022-07-01T05:26:44;0.55;;;0.50;;
29006;SDS011;16104;48.642;9.008;2022-07-01T05:31:39;2.03;;;0.50;;
29006;SDS011;16104;48.642;9.008;2022-07-01T05:36:35;2.30;;;0.40;;
29006;SDS011;16104;48.642;9.008;2022-07-01T05:41:30;0.30;;;0.20;;
29006;SDS011;16104;48.642;9.008;2022-07-01T05:46:27;3.65;;;0.30;;
29006;SDS011;16104;48.642;9.008;2022-07-01T05:51:23;0.32;;;0.20;;
29006;SDS011;16104;48.642;9.008;2022-07-01T05:56:18;0.80;;;0.43;;
29006;SDS011;16104;48.642;9.008;2022-07-01T06:01:15;0.38;;;0.30;;
29006;SDS011;16104;48.642;9.008;2022-07-01T06:06:10;0.40;;;0.30;;
29006;SDS011;16104;48.642;9.008;2022-07-01T06:11:06;2.30;;;0.40;;
29006;SDS011;16104;48.642;9.008;2022-07-01T06:16:02;1.13;;;0.35;;
29006;SDS011;16104;48.642;9.008;2022-07-01T06:20:58;2.40;;;0.40;;
29006;SDS011;16104;48.642;9.008;2022-07-01T06:25:53;1.13;;;0.50;;
29006;SDS011;16104;48.642;9.008;2022-07-01T06:30:49;0.40;;;0.30;;
29006;SDS011;16104;48.642;9.008;2022-07-01T06:35:44;0.52;;;0.30;;
29006;SDS011;16104;48.642;9.008;2022-07-01T06:40:40;1.35;;;0.50;;
29006;SDS011;16104;48.642;9.008;2022-07-01T06:45:35;0.90;;;0.40;;
29006;SDS011;16104;48.642;9.008;2022-07-01T06:50:31;1.25;;;0.40;;
29006;SDS011;16104;48.642;9.008;2022-07-01T06:55:26;0.55;;;0.22;;
29006;SDS011;16104;48.642;9.008;2022-07-01T07:00:22;1.27;;;0.60;;
29006;SDS011;16104;48.642;9.008;2022-07-01T07:05:18;1.45;;;0.50;;
29006;SDS011;16104;48.642;9.008;2022-07-01T07:10:13;0.82;;;0.50;;
29006;SDS011;16104;48.642;9.008;2022-07-01T07:15:09;0.82;;;0.40;;
29006;SDS011;16104;48.642;9.008;2022-07-01T07:20:05;1.02;;;0.30;;
29006;SDS011;16104;48.642;9.008;2022-07-01T07:25:01;0.85;;;0.45;;
29006;SDS011;16104;48.642;9.008;2022-07-01T07:29:57;0.95;;;0.47;;
29006;SDS011;16104;48.642;9.008;2022-07-01T07:34:52;1.05;;;0.45;;
29006;SDS011;16104;48.642;9.008;2022-07-01T07:39:48;0.55;;;0.35;;
29006;SDS011;16104;48.642;9.008;2022-07-01T07:44:43;0.82;;;0.47;;
29006;SDS011;16104;48.642;9.008;2022-07-01T07:49:39;0.50;;;0.40;;
29006;SDS011;16104;48.642;9.008;2022-07-01T07:54:34;0.30;;;0.30;;
29006;SDS011;16104;48.642;9.008;2022-07-01T07:59:32;0.20;;;0.20;;
29006;SDS011;16104;48.642;9.008;2022-07-01T08:04:29;1.45;;;0.40;;
29006;SDS011;16104;48.642;9.008;2022-07-01T08:09:25;1.88;;;0.82;;
29006;SDS011;16104;48.642;9.008;2022-07-01T08:14:21;1.90;;;0.40;;
29006;SDS011;16104;48.642;9.008;2022-07-01T08:19:16;0.55;;;0.52;;
29006;SDS011;16104;48.642;9.008;2022-07-01T08:24:12;0.50;;;0.50;;
29006;SDS011;16104;48.642;9.008;2022-07-01T08:29:07;0.85;;;0.47;;
29006;SDS011;16104;48.642;9.008;2022-07-01T08:34:03;2.47;;;0.47;;
29006;SDS011;16104;48.642;9.008;2022-07-01T08:38:59;3.92;;;0.40;;
29006;SDS011;16104;48.642;9.008;2022-07-01T08:43:54;0.90;;;0.60;;
29006;SDS011;16104;48.642;9.008;2022-07-01T08:48:50;2.92;;;0.50;;
29006;SDS011;16104;48.642;9.008;2022-07-01T08:53:45;0.57;;;0.30;;
29006;SDS011;16104;48.642;9.008;2022-07-01T08:58:41;1.27;;;0.60;;
29006;SDS011;16104;48.642;9.008;2022-07-01T09:03:37;1.23;;;0.38;;
29006;SDS011;16104;48.642;9.008;2022-07-01T09:08:33;3.70;;;0.50;;
29006;SDS011;16104;48.642;9.008;2022-07-01T09:13:28;0.68;;;0.50;;
29006;SDS011;16104;48.642;9.008;2022-07-01T09:18:24;0.52;;;0.40;;
29006;SDS011;16104;48.642;9.008;2022-07-01T09:23:19;0.20;;;0.20;;
29006;SDS011;16104;48.642;9.008;2022-07-01T09:28:16;0.90;;;0.50;;
29006;SDS011;16104;48.642;9.008;2022-07-01T09:33:20;1.15;;;0.60;;
29006;SDS011;16104;48.642;9.008;2022-07-01T09:38:18;0.60;;;0.40;;
29006;SDS011;16104;48.642;9.008;2022-07-01T09:43:25;1.05;;;0.40;;
29006;SDS011;16104;48.642;9.008;2022-07-01T09:48:22;0.98;;;0.40;;
29006;SDS011;16104;48.642;9.008;2022-07-01T09:53:20;0.50;;;0.30;;
29006;SDS011;16104;48.642;9.008;2022-07-01T09:58:16;2.03;;;0.73;;
29006;SDS011;16104;48.642;9.008;2022-07-01T10:03:12;2.05;;;0.60;;
29006;SDS011;16104;48.642;9.008;2022-07-01T10:13:17;0.88;;;0.47;;
29006;SDS011;16104;48.642;9.008;2022-07-01T10:18:23;0.43;;;0.43;;
29006;SDS011;16104;48.642;9.008;2022-07-01T10:23:21;0.77;;;0.50;;
29006;SDS011;16104;48.642;9.008;2022-07-01T10:28:19;1.38;;;0.40;;
29006;SDS011;16104;48.642;9.008;2022-07-01T10:33:28;0.47;;;0.47;;
29006;SDS011;16104;48.642;9.008;2022-07-01T10:38:28;0.40;;;0.40;;
29006;SDS011;16104;48.642;9.008;2022-07-01T10:43:32;0.98;;;0.50;;
29006;SDS011;16104;48.642;9.008;2022-07-01T10:48:32;0.47;;;0.40;;
29006;SDS011;16104;48.642;9.008;2022-07-01T10:53:44;2.55;;;0.50;;
29006;SDS011;16104;48.642;9.008;2022-07-01T10:58:42;0.45;;;0.45;;
29006;SDS011;16104;48.642;9.008;2022-07-01T11:03:38;2.20;;;0.57;;
29006;SDS011;16104;48.642;9.008;2022-07-01T11:08:34;0.82;;;0.50;;
29006;SDS011;16104;48.642;9.008;2022-07-01T11:13:30;0.88;;;0.60;;
29006;SDS011;16104;48.642;9.008;2022-07-01T11:18:26;0.93;;;0.60;;
29006;SDS011;16104;48.642;9.008;2022-07-01T11:23:21;1.20;;;0.70;;
29006;SDS011;16104;48.642;9.008;2022-07-01T11:28:17;1.10;;;0.47;;
29006;SDS011;16104;48.642;9.008;2022-07-01T11:33:12;0.60;;;0.60;;
29006;SDS011;16104;48.642;9.008;2022-07-01T11:38:12;0.68;;;0.60;;
29006;SDS011;16104;48.642;9.008;2022-07-01T11:43:33;0.70;;;0.60;;
29006;SDS011;16104;48.642;9.008;2022-07-01T11:48:31;1.40;;;0.60;;
29006;SDS011;16104;48.642;9.008;2022-07-01T11:53:27;1.00;;;0.50;;
29006;SDS011;16104;48.642;9.008;2022-07-01T11:58:23;1.42;;;0.52;;
29006;SDS011;16104;48.642;9.008;2022-07-01T12:03:31;1.20;;;0.60;;
29006;SDS011;16104;48.642;9.008;2022-07-01T12:08:26;2.40;;;0.77;;
29006;SDS011;16104;48.642;9.008;2022-07-01T12:13:23;3.60;;;0.80;;
29006;SDS011;16104;48.642;9.008;2022-07-01T12:18:19;1.05;;;0.80;;
29006;SDS011;16104;48.642;9.008;2022-07-01T12:23:14;1.63;;;0.80;;
29006;SDS011;16104;48.642;9.008;2022-07-01T12:28:23;1.33;;;0.63;;
29006;SDS011;16104;48.642;9.008;2022-07-01T12:33:26;1.05;;;0.70;;
29006;SDS011;16104;48.642;9.008;2022-07-01T12:38:22;1.23;;;0.50;;
29006;SDS011;16104;48.642;9.008;2022-07-01T12:43:24;1.02;;;0.60;;
29006;SDS011;16104;48.642;9.008;2022-07-01T12:48:24;1.02;;;0.57;;
29006;SDS011;16104;48.642;9.008;2022-07-01T12:53:20;1.02;;;0.70;;
29006;SDS011;16104;48.642;9.008;2022-07-01T12:58:18;1.02;;;0.70;;
29006;SDS011;16104;48.642;9.008;2022-07-01T13:03:20;1.63;;;0.75;;
29006;SDS011;16104;48.642;9.008;2022-07-01T13:08:18;0.77;;;0.50;;
29006;SDS011;16104;48.642;9.008;2022-07-01T13:13:14;1.92;;;1.00;;
29006;SDS011;16104;48.642;9.008;2022-07-01T13:18:13;1.52;;;0.70;;
29006;SDS011;16104;48.642;9.008;2022-07-01T13:23:09;2.03;;;0.70;;
29006;SDS011;16104;48.642;9.008;2022-07-01T13:28:05;0.75;;;0.55;;
29006;SDS011;16104;48.642;9.008;2022-07-01T13:33:01;1.42;;;0.40;;
29006;SDS011;16104;48.642;9.008;2022-07-01T13:37:57;0.40;;;0.40;;
29006;SDS011;16104;48.642;9.008;2022-07-01T13:42:52;0.75;;;0.50;;
29006;SDS011;16104;48.642;9.008;2022-07-01T13:47:48;0.40;;;0.40;;
29006;SDS011;16104;48.642;9.008;2022-07-01T13:52:43;0.30;;;0.30;;
29006;SDS011;16104;48.642;9.008;2022-07-01T13:57:39;0.75;;;0.40;;
29006;SDS011;16104;48.642;9.008;2022-07-01T14:02:35;0.68;;;0.47;;
29006;SDS011;16104;48.642;9.008;2022-07-01T14:07:30;0.60;;;0.60;;
29006;SDS011;16104;48.642;9.008;2022-07-01T14:12:26;0.93;;;0.60;;
29006;SDS011;16104;48.642;9.008;2022-07-01T14:17:22;0.82;;;0.52;;
29006;SDS011;16104;48.642;9.008;2022-07-01T14:22:18;0.40;;;0.40;;
29006;SDS011;16104;48.642;9.008;2022-07-01T14:27:14;0.70;;;0.50;;
29006;SDS011;16104;48.642;9.008;2022-07-01T14:32:09;0.43;;;0.40;;
29006;SDS011;16104;48.642;9.008;2022-07-01T14:37:05;3.13;;;0.60;;
29006;SDS011;16104;48.642;9.008;2022-07-01T14:42:01;2.08;;;0.50;;
29006;SDS011;16104;48.642;9.008;2022-07-01T14:46:56;2.50;;;0.77;;
29006;SDS011;16104;48.642;9.008;2022-07-01T14:51:52;1.60;;;0.57;;
29006;SDS011;16104;48.642;9.008;2022-07-01T14:56:47;1.15;;;0.63;;
29006;SDS011;16104;48.642;9.008;2022-07-01T15:01:43;0.85;;;0.50;;
29006;SDS011;16104;48.642;9.008;2022-07-01T15:06:39;0.52;;;0.52;;
29006;SDS011;16104;48.642;9.008;2022-07-01T15:11:34;0.75;;;0.47;;
29006;SDS011;16104;48.642;9.008;2022-07-01T15:16:30;2.80;;;0.50;;
29006;SDS011;16104;48.642;9.008;2022-07-01T15:21:25;0.77;;;0.50;;
29006;SDS011;16104;48.642;9.008;2022-07-01T15:26:21;0.77;;;0.55;;
29006;SDS011;16104;48.642;9.008;2022-07-01T15:31:17;1.42;;;0.80;;
29006;SDS011;16104;48.642;9.008;2022-07-01T15:36:13;1.05;;;0.50;;
29006;SDS011;16104;48.642;9.008;2022-07-01T15:41:09;0.95;;;0.52;;
29006;SDS011;16104;48.642;9.008;2022-07-01T15:46:06;1.23;;;0.60;;
29006;SDS011;16104;48.642;9.008;2022-07-01T15:51:01;1.15;;;0.50;;
29006;SDS011;16104;48.642;9.008;2022-07-01T15:55:57;1.85;;;0.50;;
29006;SDS011;16104;48.642;9.008;2022-07-01T16:00:53;0.63;;;0.60;;
29006;SDS011;16104;48.642;9.008;2022-07-01T16:05:49;0.50;;;0.45;;
29006;SDS011;16104;48.642;9.008;2022-07-01T16:10:47;2.00;;;1.75;;
29006;SDS011;16104;48.642;9.008;2022-07-01T16:15:50;3.00;;;1.08;;
29006;SDS011;16104;48.642;9.008;2022-07-01T16:20:47;1.43;;;0.70;;
29006;SDS011;16104;48.642;9.008;2022-07-01T16:25:43;0.82;;;0.52;;
29006;SDS011;16104;48.642;9.008;2022-07-01T16:30:40;1.75;;;0.60;;
29006;SDS011;16104;48.642;9.008;2022-07-01T16:35:46;0.60;;;0.50;;
29006;SDS011;16104;48.642;9.008;2022-07-01T16:40:48;1.05;;;0.70;;
29006;SDS011;16104;48.642;9.008;2022-07-01T16:45:48;1.23;;;0.80;;
29006;SDS011;16104;48.642;9.008;2022-07-01T16:50:47;0.83;;;0.50;;
29006;SDS011;16104;48.642;9.008;2022-07-01T16:55:46;1.35;;;0.55;;
29006;SDS011;16104;48.642;9.008;2022-07-01T17:00:42;0.60;;;0.50;;
29006;SDS011;16104;48.642;9.008;2022-07-01T17:05:38;1.10;;;0.90;;
29006;SDS011;16104;48.642;9.008;2022-07-01T17:10:35;1.60;;;0.88;;
29006;SDS011;16104;48.642;9.008;2022-07-01T17:15:31;0.95;;;0.60;;
29006;SDS011;16104;48.642;9.008;2022-07-01T17:20:26;0.93;;;0.70;;
29006;SDS011;16104;48.642;9.008;2022-07-01T17:25:35;1.20;;;1.10;;
29006;SDS011;16104;48.642;9.008;2022-07-01T17:30:41;1.33;;;1.00;;
29006;SDS011;16104;48.642;9.008;2022-07-01T17:35:41;1.27;;;0.90;;
29006;SDS011;16104;48.642;9.008;2022-07-01T17:40:41;2.35;;;0.52;;
29006;SDS011;16104;48.642;9.008;2022-07-01T17:45:37;0.93;;;0.60;;
29006;SDS011;16104;48.642;9.008;2022-07-01T17:50:35;0.77;;;0.50;;
29006;SDS011;16104;48.642;9.008;2022-07-01T17:55:31;0.50;;;0.50;;
29006;SDS011;16104;48.642;9.008;2022-07-01T18:00:36;1.00;;;0.60;;
29006;SDS011;16104;48.642;9.008;2022-07-01T18:05:32;0.55;;;0.30;;
29006;SDS011;16104;48.642;9.008;2022-07-01T18:10:35;0.75;;;0.60;;
29006;SDS011;16104;48.642;9.008;2022-07-01T18:15:37;2.00;;;1.10;;
29006;SDS011;16104;48.642;9.008;2022-07-01T18:20:40;1.52;;;1.40;;
29006;SDS011;16104;48.642;9.008;2022-07-01T18:25:47;1.08;;;0.70;;
29006;SDS011;16104;48.642;9.008;2022-07-01T18:30:47;0.77;;;0.43;;
29006;SDS011;16104;48.642;9.008;2022-07-01T18:35:43;1.98;;;1.77;;
29006;SDS011;16104;48.642;9.008;2022-07-01T18:40:40;1.13;;;0.77;;
29006;SDS011;16104;48.642;9.008;2022-07-01T18:45:36;0.70;;;0.70;;
29006;SDS011;16104;48.642;9.008;2022-07-01T18:50:32;0.50;;;0.50;;
29006;SDS011;16104;48.642;9.008;2022-07-01T18:55:28;2.03;;;1.05;;
29006;SDS011;16104;48.642;9.008;2022-07-01T19:00:25;1.42;;;0.70;;
29006;SDS011;16104;48.642;9.008;2022-07-01T19:05:22;1.02;;;0.60;;
29006;SDS011;16104;48.642;9.008;2022-07-01T19:10:18;0.88;;;0.82;;
29006;SDS011;16104;48.642;9.008;2022-07-01T19:15:14;1.10;;;0.70;;
29006;SDS011;16104;48.642;9.008;2022-07-01T19:20:10;1.38;;;0.88;;
29006;SDS011;16104;48.642;9.008;2022-07-01T19:25:06;0.75;;;0.70;;
29006;SDS011;16104;48.642;9.008;2022-07-01T19:30:02;0.60;;;0.60;;
29006;SDS011;16104;48.642;9.008;2022-07-01T19:34:59;1.33;;;0.70;;
29006;SDS011;16104;48.642;9.008;2022-07-01T19:39:54;1.20;;;1.00;;
29006;SDS011;16104;48.642;9.008;2022-07-01T19:44:51;2.25;;;1.58;;
29006;SDS011;16104;48.642;9.008;2022-07-01T19:49:47;1.27;;;0.88;;
29006;SDS011;16104;48.642;9.008;2022-07-01T19:54:43;2.47;;;1.88;;
29006;SDS011;16104;48.642;9.008;2022-07-01T19:59:38;3.28;;;2.50;;
29006;SDS011;16104;48.642;9.008;2022-07-01T20:04:34;3.10;;;1.27;;
29006;SDS011;16104;48.642;9.008;2022-07-01T20:09:31;1.83;;;1.38;;
29006;SDS011;16104;48.642;9.008;2022-07-01T20:14:26;3.55;;;1.50;;
29006;SDS011;16104;48.642;9.008;2022-07-01T20:19:22;3.33;;;1.77;;
29006;SDS011;16104;48.642;9.008;2022-07-01T20:24:18;4.05;;;2.30;;
29006;SDS011;16104;48.642;9.008;2022-07-01T20:29:13;3.17;;;1.55;;
29006;SDS011;16104;48.642;9.008;2022-07-01T20:34:09;1.90;;;1.40;;
29006;SDS011;16104;48.642;9.008;2022-07-01T20:39:04;3.65;;;1.63;;
29006;SDS011;16104;48.642;9.008;2022-07-01T20:44:02;2.00;;;1.80;;
29006;SDS011;16104;48.642;9.008;2022-07-01T20:48:58;2.75;;;2.47;;
29006;SDS011;16104;48.642;9.008;2022-07-01T20:53:53;3.75;;;1.98;;
29006;SDS011;16104;48.642;9.008;2022-07-01T20:58:50;4.80;;;3.13;;
29006;SDS011;16104;48.642;9.008;2022-07-01T21:03:46;3.15;;;2.15;;
29006;SDS011;16104;48.642;9.008;2022-07-01T21:08:42;3.72;;;2.53;;
29006;SDS011;16104;48.642;9.008;2022-07-01T21:13:37;2.30;;;2.10;;
29006;SDS011;16104;48.642;9.008;2022-07-01T21:18:33;3.75;;;2.53;;
29006;SDS011;16104;48.642;9.008;2022-07-01T21:23:28;4.47;;;3.78;;
29006;SDS011;16104;48.642;9.008;2022-07-01T21:28:24;5.25;;;2.80;;
29006;SDS011;16104;48.642;9.008;2022-07-01T21:33:19;3.33;;;2.33;;
29006;SDS011;16104;48.642;9.008;2022-07-01T21:38:15;2.88;;;2.45;;
29006;SDS011;16104;48.642;9.008;2022-07-01T21:43:11;2.80;;;2.33;;
29006;SDS011;16104;48.642;9.008;2022-07-01T21:48:08;4.22;;;2.40;;
29006;SDS011;16104;48.642;9.008;2022-07-01T21:53:04;2.72;;;2.03;;
29006;SDS011;16104;48.642;9.008;2022-07-01T21:58:01;3.33;;;1.80;;
29006;SDS011;16104;48.642;9.008;2022-07-01T22:02:58;1.75;;;1.65;;
29006;SDS011;16104;48.642;9.008;2022-07-01T22:07:54;2.70;;;1.77;;
29006;SDS011;16104;48.642;9.008;2022-07-01T22:12:49;2.00;;;1.80;;
29006;SDS011;16104;48.642;9.008;2022-07-01T22:17:48;2.05;;;1.80;;
29006;SDS011;16104;48.642;9.008;2022-07-01T22:22:46;2.27;;;1.63;;
29006;SDS011;16104;48.642;9.008;2022-07-01T22:27:44;2.08;;;1.80;;
29006;SDS011;16104;48.642;9.008;2022-07-01T22:32:41;3.33;;;2.10;;
29006;SDS011;16104;48.642;9.008;2022-07-01T22:37:38;2.70;;;1.95;;
29006;SDS011;16104;48.642;9.008;2022-07-01T22:42:34;2.15;;;1.73;;
29006;SDS011;16104;48.642;9.008;2022-07-01T22:47:36;1.52;;;1.20;;
29006;SDS011;16104;48.642;9.008;2022-07-01T23:03:14;4.30;;;1.90;;
29006;SDS011;16104;48.642;9.008;2022-07-01T23:08:12;4.45;;;2.00;;
29006;SDS011;16104;48.642;9.008;2022-07-01T23:13:18;4.10;;;2.10;;
29006;SDS011;16104;48.642;9.008;2022-07-01T23:18:22;3.13;;;2.05;;
29006;SDS011;16104;48.642;9.008;2022-07-01T23:23:19;2.33;;;2.05;;
29006;SDS011;16104;48.642;9.008;2022-07-01T23:28:14;1.70;;;1.60;;
29006;SDS011;16104;48.642;9.008;2022-07-01T23:33:12;2.60;;;1.90;;
29006;SDS011;16104;48.642;9.008;2022-07-01T23:38:10;3.40;;;1.80;;
29006;SDS011;16104;48.642;9.008;2022-07-01T23:43:09;2.15;;;1.95;;
29006;SDS011;16104;48.642;9.008;2022-07-01T23:48:07;2.20;;;1.50;;
29006;SDS011;16104;48.642;9.008;2022-07-01T23:53:03;2.65;;;1.92;;
29006;SDS011;16104;48.642;9.008;2022-07-01T23:57:59;1.45;;;1.33;;
